Time,TemperatureF,DewpointF,PressureIn,WindDirection,WindDirectionDegrees,WindSpeedMPH,WindSpeedGustMPH,Humidity,HourlyPrecipIn,Conditions,Clouds,dailyrainin,SoftwareType,DateUTC
2015-04-18 00:02:00,49.1,46.0,30.04,SSE,159,0.0,0.0,90,0.00,,,0.00,weatherlink.com 1.10,2015-04-18 07:02:00,
2015-04-18 00:17:00,49.8,47.0,30.04,SSW,195,0.0,1.0,91,0.00,,,0.00,weatherlink.com 1.10,2015-04-18 07:17:00,
2015-04-18 00:32:00,49.9,47.0,30.04,SSE,159,0.0,1.0,91,0.00,,,0.00,weatherlink.com 1.10,2015-04-18 07:32:00,
2015-04-18 00:47:00,48.9,45.0,30.04,SSE,147,0.0,0.0,87,0.00,,,0.00,weatherlink.com 1.10,2015-04-18 07:47:00,
2015-04-18 01:02:00,47.6,45.0,30.04,SSE,147,0.0,0.0,89,0.00,,,0.00,weatherlink.com 1.10,2015-04-18 08:02:00,
2015-04-18 01:17:00,47.1,44.0,30.03,SSE,147,0.0,0.0,90,0.00,,,0.00,weatherlink.com 1.10,2015-04-18 08:17:00,
2015-04-18 01:32:00,47.4,45.0,30.03,West,271,0.0,0.0,92,0.00,,,0.00,weatherlink.com 1.10,2015-04-18 08:32:00,
2015-04-18 01:47:00,46.9,45.0,30.03,West,271,0.0,0.0,91,0.00,,,0.00,weatherlink.com 1.10,2015-04-18 08:47:00,
2015-04-18 02:02:00,45.8,43.0,30.03,West,271,0.0,0.0,91,0.00,,,0.00,weatherlink.com 1.10,2015-04-18 09:02:00,
2015-04-18 02:17:00,45.3,43.0,30.02,West,271,0.0,0.0,91,0.00,,,0.00,weatherlink.com 1.10,2015-04-18 09:17:00,
2015-04-18 02:48:00,45.9,44.0,30.02,West,271,0.0,0.0,92,0.00,,,0.00,weatherlink.com 1.10,2015-04-18 09:48:00,
2015-04-18 03:03:00,46.3,44.0,30.02,West,271,0.0,0.0,92,0.00,,,0.00,weatherlink.com 1.10,2015-04-18 10:03:00,
2015-04-18 03:18:00,46.4,45.0,30.02,West,271,0.0,0.0,93,0.00,,,0.00,weatherlink.com 1.10,2015-04-18 10:18:00,
2015-04-18 03:33:00,46.4,45.0,30.02,West,271,0.0,0.0,93,0.00,,,0.00,weatherlink.com 1.10,2015-04-18 10:33:00,
2015-04-18 03:48:00,46.3,44.0,30.01,West,271,0.0,0.0,93,0.00,,,0.00,weatherlink.com 1.10,2015-04-18 10:48:00,
2015-04-18 04:03:00,46.1,44.0,30.01,West,271,0.0,0.0,93,0.00,,,0.00,weatherlink.com 1.10,2015-04-18 11:03:00,
2015-04-18 04:18:00,46.0,44.0,30.01,West,271,0.0,0.0,94,0.00,,,0.00,weatherlink.com 1.10,2015-04-18 11:18:00,
2015-04-18 04:33:00,46.9,46.0,30.01,West,271,0.0,0.0,95,0.00,,,0.00,weatherlink.com 1.10,2015-04-18 11:33:00,
2015-04-18 04:48:00,47.5,46.0,30.01,West,264,0.0,0.0,94,0.00,,,0.00,weatherlink.com 1.10,2015-04-18 11:48:00,
2015-04-18 05:03:00,48.0,46.0,30.01,West,265,0.0,0.0,94,0.00,,,0.00,weatherlink.com 1.10,2015-04-18 12:03:00,
2015-04-18 05:18:00,48.5,47.0,30.00,West,265,0.0,0.0,94,0.00,,,0.00,weatherlink.com 1.10,2015-04-18 12:18:00,
2015-04-18 05:33:00,49.0,47.0,30.01,West,265,0.0,0.0,94,0.00,,,0.00,weatherlink.com 1.10,2015-04-18 12:33:00,
2015-04-18 05:48:00,49.1,48.0,30.01,West,265,0.0,0.0,94,0.00,,,0.00,weatherlink.com 1.10,2015-04-18 12:48:00,
2015-04-18 06:03:00,49.2,48.0,30.02,West,265,0.0,0.0,94,0.00,,,0.00,weatherlink.com 1.10,2015-04-18 13:03:00,
2015-04-18 06:18:00,48.8,47.0,30.02,SSE,159,0.0,0.0,93,0.00,,,0.00,weatherlink.com 1.10,2015-04-18 13:18:00,
2015-04-18 06:34:00,48.8,47.0,30.01,SSE,159,0.0,0.0,93,0.00,,,0.00,weatherlink.com 1.10,2015-04-18 13:34:00,
2015-04-18 06:48:00,48.8,47.0,30.02,SSE,159,0.0,0.0,93,0.00,,,0.00,weatherlink.com 1.10,2015-04-18 13:48:00,
2015-04-18 07:03:00,48.7,47.0,30.02,SSE,159,0.0,0.0,93,0.00,,,0.00,weatherlink.com 1.10,2015-04-18 14:03:00,
2015-04-18 07:18:00,48.7,47.0,30.02,SSE,163,0.0,0.0,93,0.00,,,0.00,weatherlink.com 1.10,2015-04-18 14:18:00,
2015-04-18 07:33:00,49.1,47.0,30.02,SSE,162,0.0,0.0,93,0.00,,,0.00,weatherlink.com 1.10,2015-04-18 14:33:00,
2015-04-18 07:48:00,49.4,48.0,30.03,South,174,0.0,1.0,94,0.00,,,0.00,weatherlink.com 1.10,2015-04-18 14:48:00,
2015-04-18 08:03:00,49.9,48.0,30.03,WSW,238,0.0,1.0,93,0.00,,,0.00,weatherlink.com 1.10,2015-04-18 15:03:00,
2015-04-18 08:18:00,50.3,48.0,30.03,SSE,151,0.0,1.0,93,0.00,,,0.00,weatherlink.com 1.10,2015-04-18 15:18:00,
2015-04-18 08:33:00,50.8,49.0,30.02,SSE,154,0.0,1.0,92,0.00,,,0.00,weatherlink.com 1.10,2015-04-18 15:33:00,
2015-04-18 08:48:00,52.0,49.0,30.02,SSE,148,0.0,0.0,90,0.00,,,0.00,weatherlink.com 1.10,2015-04-18 15:48:00,
2015-04-18 09:03:00,52.9,50.0,30.02,North,359,0.0,2.0,88,0.00,,,0.00,weatherlink.com 1.10,2015-04-18 16:03:00,
2015-04-18 09:18:00,54.0,50.0,30.02,NW,325,0.0,1.0,87,0.00,,,0.00,weatherlink.com 1.10,2015-04-18 16:18:00,
2015-04-18 09:33:00,55.4,51.0,30.02,North,11,0.0,2.0,84,0.00,,,0.00,weatherlink.com 1.10,2015-04-18 16:33:00,
2015-04-18 09:48:00,57.2,51.0,30.02,West,272,0.0,3.0,80,0.00,,,0.00,weatherlink.com 1.10,2015-04-18 16:48:00,
2015-04-18 10:03:00,59.3,52.0,30.02,North,352,1.0,2.0,76,0.00,,,0.00,weatherlink.com 1.10,2015-04-18 17:03:00,
2015-04-18 10:19:00,61.3,52.0,30.02,NW,319,0.0,1.0,71,0.00,,,0.00,weatherlink.com 1.10,2015-04-18 17:19:00,
2015-04-18 10:34:00,63.0,53.0,30.02,NNW,335,1.0,3.0,70,0.00,,,0.00,weatherlink.com 1.10,2015-04-18 17:34:00,
2015-04-18 10:49:00,64.6,53.0,30.02,SE,141,0.0,2.0,66,0.00,,,0.00,weatherlink.com 1.10,2015-04-18 17:49:00,
2015-04-18 11:04:00,65.6,52.0,30.02,North,353,0.0,2.0,62,0.00,,,0.00,weatherlink.com 1.10,2015-04-18 18:04:00,
2015-04-18 11:19:00,66.9,52.0,30.02,NNW,333,1.0,3.0,60,0.00,,,0.00,weatherlink.com 1.10,2015-04-18 18:19:00,
2015-04-18 11:34:00,68.6,53.0,30.01,NW,309,1.0,2.0,58,0.00,,,0.00,weatherlink.com 1.10,2015-04-18 18:34:00,
2015-04-18 11:49:00,69.3,54.0,30.01,North,8,1.0,2.0,59,0.00,,,0.00,weatherlink.com 1.10,2015-04-18 18:49:00,
2015-04-18 12:04:00,70.9,54.0,30.00,North,2,2.0,2.0,56,0.00,,,0.00,weatherlink.com 1.10,2015-04-18 19:04:00,
2015-04-18 12:19:00,70.8,54.0,30.00,NW,316,1.0,5.0,56,0.00,,,0.00,weatherlink.com 1.10,2015-04-18 19:19:00,
2015-04-18 12:34:00,70.7,55.0,29.99,SW,224,0.0,3.0,58,0.00,,,0.00,weatherlink.com 1.10,2015-04-18 19:34:00,
2015-04-18 12:49:00,72.7,56.0,29.99,South,186,0.0,3.0,57,0.00,,,0.00,weatherlink.com 1.10,2015-04-18 19:49:00,
2015-04-18 13:04:00,72.7,56.0,29.98,SSW,195,0.0,3.0,57,0.00,,,0.00,weatherlink.com 1.10,2015-04-18 20:04:00,
2015-04-18 13:19:00,73.4,57.0,29.97,SW,233,1.0,2.0,57,0.00,,,0.00,weatherlink.com 1.10,2015-04-18 20:19:00,
2015-04-18 13:34:00,74.4,57.0,29.96,NNW,328,1.0,3.0,54,0.00,,,0.00,weatherlink.com 1.10,2015-04-18 20:34:00,
2015-04-18 13:49:00,75.6,57.0,29.96,WNW,289,1.0,4.0,53,0.00,,,0.00,weatherlink.com 1.10,2015-04-18 20:49:00,